sensor_id;sensor_type;location;lat;lon;timestamp;P1;durP1;ratioP1;P2;durP2;ratioP2
5951;SDS011;3001;42.622;23.194;2023-06-19T00:00:01;5.17;;;4.73;;
5951;SDS011;3001;42.622;23.194;2023-06-19T00:02:33;5.07;;;4.60;;
5951;SDS011;3001;42.622;23.194;2023-06-19T00:05:00;5.87;;;5.33;;
5951;SDS011;3001;42.622;23.194;2023-06-19T00:07:26;4.63;;;4.43;;
5951;SDS011;3001;42.622;23.194;2023-06-19T00:09:53;7.37;;;5.20;;
5951;SDS011;3001;42.622;23.194;2023-06-19T00:12:20;4.77;;;4.40;;
5951;SDS011;3001;42.622;23.194;2023-06-19T00:14:46;5.07;;;4.70;;
5951;SDS011;3001;42.622;23.194;2023-06-19T00:17:13;6.60;;;5.00;;
5951;SDS011;3001;42.622;23.194;2023-06-19T00:19:43;5.07;;;4.60;;
5951;SDS011;3001;42.622;23.194;2023-06-19T00:22:10;5.33;;;4.90;;
5951;SDS011;3001;42.622;23.194;2023-06-19T00:24:37;9.10;;;5.00;;
5951;SDS011;3001;42.622;23.194;2023-06-19T00:27:03;8.43;;;4.77;;
5951;SDS011;3001;42.622;23.194;2023-06-19T00:29:31;5.00;;;4.63;;
5951;SDS011;3001;42.622;23.194;2023-06-19T00:31:58;5.27;;;4.97;;
5951;SDS011;3001;42.622;23.194;2023-06-19T00:34:25;10.03;;;5.07;;
5951;SDS011;3001;42.622;23.194;2023-06-19T00:36:53;5.20;;;4.83;;
5951;SDS011;3001;42.622;23.194;2023-06-19T00:39:21;5.63;;;5.17;;
5951;SDS011;3001;42.622;23.194;2023-06-19T00:41:48;5.50;;;5.10;;
5951;SDS011;3001;42.622;23.194;2023-06-19T00:44:17;4.70;;;4.27;;
5951;SDS011;3001;42.622;23.194;2023-06-19T00:46:44;5.33;;;5.03;;
5951;SDS011;3001;42.622;23.194;2023-06-19T00:49:11;7.50;;;5.23;;
5951;SDS011;3001;42.622;23.194;2023-06-19T00:51:39;5.10;;;4.80;;
5951;SDS011;3001;42.622;23.194;2023-06-19T00:54:08;5.20;;;4.90;;
5951;SDS011;3001;42.622;23.194;2023-06-19T00:56:35;5.77;;;5.30;;
5951;SDS011;3001;42.622;23.194;2023-06-19T00:59:05;4.77;;;4.47;;
5951;SDS011;3001;42.622;23.194;2023-06-19T01:01:33;6.73;;;5.43;;
5951;SDS011;3001;42.622;23.194;2023-06-19T01:04:00;6.03;;;5.37;;
5951;SDS011;3001;42.622;23.194;2023-06-19T01:06:27;5.23;;;4.77;;
5951;SDS011;3001;42.622;23.194;2023-06-19T01:09:04;4.87;;;4.67;;
5951;SDS011;3001;42.622;23.194;2023-06-19T01:11:36;4.97;;;4.67;;
5951;SDS011;3001;42.622;23.194;2023-06-19T01:14:14;4.93;;;4.63;;
5951;SDS011;3001;42.622;23.194;2023-06-19T01:16:45;9.10;;;5.17;;
5951;SDS011;3001;42.622;23.194;2023-06-19T01:19:15;5.40;;;5.00;;
5951;SDS011;3001;42.622;23.194;2023-06-19T01:21:44;5.37;;;5.03;;
5951;SDS011;3001;42.622;23.194;2023-06-19T01:24:13;5.33;;;5.13;;
5951;SDS011;3001;42.622;23.194;2023-06-19T01:26:40;4.97;;;4.73;;
5951;SDS011;3001;42.622;23.194;2023-06-19T01:29:10;5.30;;;4.93;;
5951;SDS011;3001;42.622;23.194;2023-06-19T01:31:38;5.60;;;5.30;;
5951;SDS011;3001;42.622;23.194;2023-06-19T01:34:11;6.00;;;5.70;;
5951;SDS011;3001;42.622;23.194;2023-06-19T01:36:40;5.47;;;5.17;;
5951;SDS011;3001;42.622;23.194;2023-06-19T01:39:08;5.07;;;4.77;;
5951;SDS011;3001;42.622;23.194;2023-06-19T01:41:37;5.80;;;5.40;;
5951;SDS011;3001;42.622;23.194;2023-06-19T01:44:06;6.33;;;5.67;;
5951;SDS011;3001;42.622;23.194;2023-06-19T01:46:33;5.70;;;5.40;;
5951;SDS011;3001;42.622;23.194;2023-06-19T01:48:59;5.70;;;5.40;;
5951;SDS011;3001;42.622;23.194;2023-06-19T01:51:26;6.47;;;6.07;;
5951;SDS011;3001;42.622;23.194;2023-06-19T01:53:53;7.07;;;6.47;;
5951;SDS011;3001;42.622;23.194;2023-06-19T01:56:19;6.17;;;5.67;;
5951;SDS011;3001;42.622;23.194;2023-06-19T01:58:50;6.20;;;5.53;;
5951;SDS011;3001;42.622;23.194;2023-06-19T02:01:17;8.37;;;6.33;;
5951;SDS011;3001;42.622;23.194;2023-06-19T02:03:44;7.40;;;6.90;;
5951;SDS011;3001;42.622;23.194;2023-06-19T02:06:11;6.90;;;6.20;;
5951;SDS011;3001;42.622;23.194;2023-06-19T02:08:38;6.87;;;6.47;;
5951;SDS011;3001;42.622;23.194;2023-06-19T02:11:04;11.03;;;6.67;;
5951;SDS011;3001;42.622;23.194;2023-06-19T02:13:31;6.20;;;5.33;;
5951;SDS011;3001;42.622;23.194;2023-06-19T02:15:59;6.47;;;5.83;;
5951;SDS011;3001;42.622;23.194;2023-06-19T02:18:26;6.47;;;6.07;;
5951;SDS011;3001;42.622;23.194;2023-06-19T02:20:52;6.73;;;6.13;;
5951;SDS011;3001;42.622;23.194;2023-06-19T02:23:19;6.53;;;6.03;;
5951;SDS011;3001;42.622;23.194;2023-06-19T02:25:46;6.60;;;6.03;;
5951;SDS011;3001;42.622;23.194;2023-06-19T02:28:12;7.80;;;6.03;;
5951;SDS011;3001;42.622;23.194;2023-06-19T02:30:39;6.33;;;5.67;;
5951;SDS011;3001;42.622;23.194;2023-06-19T02:33:07;6.87;;;6.17;;
5951;SDS011;3001;42.622;23.194;2023-06-19T02:35:34;8.10;;;6.37;;
5951;SDS011;3001;42.622;23.194;2023-06-19T02:38:00;6.60;;;6.23;;
5951;SDS011;3001;42.622;23.194;2023-06-19T02:40:29;6.77;;;6.37;;
5951;SDS011;3001;42.622;23.194;2023-06-19T02:42:56;6.67;;;6.27;;
5951;SDS011;3001;42.622;23.194;2023-06-19T02:45:23;7.73;;;6.23;;
5951;SDS011;3001;42.622;23.194;2023-06-19T02:47:49;7.13;;;6.40;;
5951;SDS011;3001;42.622;23.194;2023-06-19T02:50:18;6.33;;;6.03;;
5951;SDS011;3001;42.622;23.194;2023-06-19T02:52:45;7.23;;;6.53;;
5951;SDS011;3001;42.622;23.194;2023-06-19T02:55:11;8.87;;;6.27;;
5951;SDS011;3001;42.622;23.194;2023-06-19T02:57:38;7.03;;;6.37;;
5951;SDS011;3001;42.622;23.194;2023-06-19T03:00:05;6.40;;;6.10;;
5951;SDS011;3001;42.622;23.194;2023-06-19T03:02:34;6.37;;;6.07;;
5951;SDS011;3001;42.622;23.194;2023-06-19T03:05:01;6.93;;;6.43;;
5951;SDS011;3001;42.622;23.194;2023-06-19T03:07:30;6.83;;;6.43;;
5951;SDS011;3001;42.622;23.194;2023-06-19T03:09:57;6.83;;;6.20;;
5951;SDS011;3001;42.622;23.194;2023-06-19T03:12:24;6.20;;;5.80;;
5951;SDS011;3001;42.622;23.194;2023-06-19T03:14:50;6.63;;;6.23;;
5951;SDS011;3001;42.622;23.194;2023-06-19T03:17:17;6.57;;;6.03;;
5951;SDS011;3001;42.622;23.194;2023-06-19T03:19:44;6.77;;;6.20;;
5951;SDS011;3001;42.622;23.194;2023-06-19T03:22:10;7.23;;;6.73;;
5951;SDS011;3001;42.622;23.194;2023-06-19T03:24:38;6.63;;;6.00;;
5951;SDS011;3001;42.622;23.194;2023-06-19T03:27:05;6.63;;;6.07;;
5951;SDS011;3001;42.622;23.194;2023-06-19T03:29:32;6.70;;;6.40;;
5951;SDS011;3001;42.622;23.194;2023-06-19T03:31:59;7.90;;;6.50;;
5951;SDS011;3001;42.622;23.194;2023-06-19T03:34:25;6.27;;;5.87;;
5951;SDS011;3001;42.622;23.194;2023-06-19T03:36:52;6.60;;;6.30;;
5951;SDS011;3001;42.622;23.194;2023-06-19T03:39:19;8.30;;;7.27;;
5951;SDS011;3001;42.622;23.194;2023-06-19T03:41:47;7.40;;;6.97;;
5951;SDS011;3001;42.622;23.194;2023-06-19T03:44:13;8.57;;;6.97;;
5951;SDS011;3001;42.622;23.194;2023-06-19T03:46:40;7.40;;;6.70;;
5951;SDS011;3001;42.622;23.194;2023-06-19T03:49:07;6.70;;;6.40;;
5951;SDS011;3001;42.622;23.194;2023-06-19T03:51:34;7.50;;;6.90;;
5951;SDS011;3001;42.622;23.194;2023-06-19T03:54:01;6.90;;;6.40;;
5951;SDS011;3001;42.622;23.194;2023-06-19T03:56:28;9.53;;;7.20;;
5951;SDS011;3001;42.622;23.194;2023-06-19T03:58:56;7.00;;;6.60;;
5951;SDS011;3001;42.622;23.194;2023-06-19T04:01:22;6.93;;;6.53;;
5951;SDS011;3001;42.622;23.194;2023-06-19T04:03:49;7.53;;;7.00;;
5951;SDS011;3001;42.622;23.194;2023-06-19T04:06:16;7.40;;;6.90;;
5951;SDS011;3001;42.622;23.194;2023-06-19T04:08:42;6.70;;;6.30;;
5951;SDS011;3001;42.622;23.194;2023-06-19T04:11:09;6.93;;;6.43;;
5951;SDS011;3001;42.622;23.194;2023-06-19T04:13:36;7.73;;;7.10;;
5951;SDS011;3001;42.622;23.194;2023-06-19T04:16:04;7.33;;;6.93;;
5951;SDS011;3001;42.622;23.194;2023-06-19T04:18:31;7.40;;;6.70;;
5951;SDS011;3001;42.622;23.194;2023-06-19T04:20:57;7.73;;;7.27;;
5951;SDS011;3001;42.622;23.194;2023-06-19T04:23:24;7.13;;;6.73;;
5951;SDS011;3001;42.622;23.194;2023-06-19T04:25:51;7.23;;;6.67;;
5951;SDS011;3001;42.622;23.194;2023-06-19T04:28:17;7.47;;;6.77;;
5951;SDS011;3001;42.622;23.194;2023-06-19T04:30:44;6.80;;;6.40;;
5951;SDS011;3001;42.622;23.194;2023-06-19T04:33:12;10.07;;;7.80;;
5951;SDS011;3001;42.622;23.194;2023-06-19T04:35:39;8.03;;;7.37;;
5951;SDS011;3001;42.622;23.194;2023-06-19T04:38:06;7.23;;;6.83;;
5951;SDS011;3001;42.622;23.194;2023-06-19T04:40:33;7.17;;;6.77;;
5951;SDS011;3001;42.622;23.194;2023-06-19T04:43:00;7.23;;;6.93;;
5951;SDS011;3001;42.622;23.194;2023-06-19T04:45:27;7.23;;;6.73;;
5951;SDS011;3001;42.622;23.194;2023-06-19T04:47:54;6.33;;;6.00;;
5951;SDS011;3001;42.622;23.194;2023-06-19T04:50:22;6.73;;;6.33;;
5951;SDS011;3001;42.622;23.194;2023-06-19T04:52:49;7.53;;;7.13;;
5951;SDS011;3001;42.622;23.194;2023-06-19T04:55:16;6.70;;;6.40;;
5951;SDS011;3001;42.622;23.194;2023-06-19T04:57:43;7.00;;;6.67;;
5951;SDS011;3001;42.622;23.194;2023-06-19T05:00:10;7.33;;;6.83;;
5951;SDS011;3001;42.622;23.194;2023-06-19T05:02:37;7.33;;;6.83;;
5951;SDS011;3001;42.622;23.194;2023-06-19T05:05:08;6.93;;;6.53;;
5951;SDS011;3001;42.622;23.194;2023-06-19T05:07:36;6.43;;;5.93;;
5951;SDS011;3001;42.622;23.194;2023-06-19T05:10:03;8.37;;;7.83;;
5951;SDS011;3001;42.622;23.194;2023-06-19T05:12:30;7.77;;;7.27;;
5951;SDS011;3001;42.622;23.194;2023-06-19T05:14:57;6.77;;;6.40;;
5951;SDS011;3001;42.622;23.194;2023-06-19T05:17:23;8.20;;;7.70;;
5951;SDS011;3001;42.622;23.194;2023-06-19T05:19:50;7.20;;;6.80;;
5951;SDS011;3001;42.622;23.194;2023-06-19T05:22:17;8.20;;;7.43;;
5951;SDS011;3001;42.622;23.194;2023-06-19T05:24:47;8.77;;;7.97;;
5951;SDS011;3001;42.622;23.194;2023-06-19T05:27:14;8.97;;;8.27;;
5951;SDS011;3001;42.622;23.194;2023-06-19T05:29:41;10.20;;;9.27;;
5951;SDS011;3001;42.622;23.194;2023-06-19T05:32:07;9.00;;;8.20;;
5951;SDS011;3001;42.622;23.194;2023-06-19T05:34:34;9.33;;;8.63;;
5951;SDS011;3001;42.622;23.194;2023-06-19T05:37:01;9.97;;;9.10;;
5951;SDS011;3001;42.622;23.194;2023-06-19T05:39:28;14.57;;;10.07;;
5951;SDS011;3001;42.622;23.194;2023-06-19T05:41:57;12.60;;;8.53;;
5951;SDS011;3001;42.622;23.194;2023-06-19T05:44:24;9.47;;;8.67;;
5951;SDS011;3001;42.622;23.194;2023-06-19T05:46:50;15.90;;;8.87;;
5951;SDS011;3001;42.622;23.194;2023-06-19T05:49:17;9.40;;;8.57;;
5951;SDS011;3001;42.622;23.194;2023-06-19T05:51:44;11.13;;;7.83;;
5951;SDS011;3001;42.622;23.194;2023-06-19T05:54:10;8.50;;;7.70;;
5951;SDS011;3001;42.622;23.194;2023-06-19T05:56:37;8.20;;;7.57;;
5951;SDS011;3001;42.622;23.194;2023-06-19T05:59:06;10.13;;;7.57;;
5951;SDS011;3001;42.622;23.194;2023-06-19T06:01:32;8.30;;;7.70;;
5951;SDS011;3001;42.622;23.194;2023-06-19T06:03:59;8.90;;;8.00;;
5951;SDS011;3001;42.622;23.194;2023-06-19T06:06:26;8.23;;;7.50;;
5951;SDS011;3001;42.622;23.194;2023-06-19T06:08:53;8.97;;;7.83;;
5951;SDS011;3001;42.622;23.194;2023-06-19T06:11:21;8.83;;;8.20;;
5951;SDS011;3001;42.622;23.194;2023-06-19T06:13:48;8.07;;;7.20;;
5951;SDS011;3001;42.622;23.194;2023-06-19T06:16:16;7.97;;;6.27;;
5951;SDS011;3001;42.622;23.194;2023-06-19T06:18:44;7.50;;;6.30;;
5951;SDS011;3001;42.622;23.194;2023-06-19T06:21:11;6.60;;;6.10;;
5951;SDS011;3001;42.622;23.194;2023-06-19T06:23:38;10.57;;;7.13;;
5951;SDS011;3001;42.622;23.194;2023-06-19T06:26:04;7.17;;;6.67;;
5951;SDS011;3001;42.622;23.194;2023-06-19T06:28:31;8.13;;;7.63;;
5951;SDS011;3001;42.622;23.194;2023-06-19T06:30:58;8.13;;;6.50;;
5951;SDS011;3001;42.622;23.194;2023-06-19T06:33:26;7.00;;;6.53;;
5951;SDS011;3001;42.622;23.194;2023-06-19T06:35:54;7.73;;;6.97;;
5951;SDS011;3001;42.622;23.194;2023-06-19T06:38:21;6.70;;;6.03;;
5951;SDS011;3001;42.622;23.194;2023-06-19T06:40:48;6.70;;;6.20;;
5951;SDS011;3001;42.622;23.194;2023-06-19T06:43:15;6.07;;;5.67;;
5951;SDS011;3001;42.622;23.194;2023-06-19T06:45:42;6.07;;;5.67;;
5951;SDS011;3001;42.622;23.194;2023-06-19T06:48:08;6.90;;;5.73;;
5951;SDS011;3001;42.622;23.194;2023-06-19T06:50:37;6.03;;;5.57;;
5951;SDS011;3001;42.622;23.194;2023-06-19T06:53:03;5.40;;;4.87;;
5951;SDS011;3001;42.622;23.194;2023-06-19T06:55:30;6.33;;;5.77;;
5951;SDS011;3001;42.622;23.194;2023-06-19T06:57:56;6.77;;;6.27;;
5951;SDS011;3001;42.622;23.194;2023-06-19T07:00:23;7.13;;;6.27;;
5951;SDS011;3001;42.622;23.194;2023-06-19T07:02:50;6.43;;;6.00;;
5951;SDS011;3001;42.622;23.194;2023-06-19T07:05:16;5.57;;;5.27;;
5951;SDS011;3001;42.622;23.194;2023-06-19T07:07:45;6.40;;;6.00;;
5951;SDS011;3001;42.622;23.194;2023-06-19T07:10:11;6.70;;;6.30;;
5951;SDS011;3001;42.622;23.194;2023-06-19T07:12:45;8.33;;;6.60;;
5951;SDS011;3001;42.622;23.194;2023-06-19T07:15:13;6.20;;;5.70;;
5951;SDS011;3001;42.622;23.194;2023-06-19T07:17:40;6.17;;;5.57;;
5951;SDS011;3001;42.622;23.194;2023-06-19T07:20:07;5.80;;;5.40;;
5951;SDS011;3001;42.622;23.194;2023-06-19T07:22:34;5.97;;;5.57;;
5951;SDS011;3001;42.622;23.194;2023-06-19T07:25:03;5.93;;;5.60;;
5951;SDS011;3001;42.622;23.194;2023-06-19T07:27:30;5.80;;;5.30;;
5951;SDS011;3001;42.622;23.194;2023-06-19T07:29:57;5.60;;;5.10;;
5951;SDS011;3001;42.622;23.194;2023-06-19T07:32:24;5.20;;;4.80;;
5951;SDS011;3001;42.622;23.194;2023-06-19T07:34:50;5.57;;;5.17;;
5951;SDS011;3001;42.622;23.194;2023-06-19T07:37:17;5.67;;;5.20;;
5951;SDS011;3001;42.622;23.194;2023-06-19T07:39:44;5.83;;;5.50;;
5951;SDS011;3001;42.622;23.194;2023-06-19T07:42:12;5.33;;;5.07;;
5951;SDS011;3001;42.622;23.194;2023-06-19T07:44:40;5.63;;;5.33;;
5951;SDS011;3001;42.622;23.194;2023-06-19T07:47:07;4.87;;;4.57;;
5951;SDS011;3001;42.622;23.194;2023-06-19T07:49:34;4.67;;;4.47;;
5951;SDS011;3001;42.622;23.194;2023-06-19T07:52:01;5.07;;;4.77;;
5951;SDS011;3001;42.622;23.194;2023-06-19T07:54:27;5.13;;;4.90;;
5951;SDS011;3001;42.622;23.194;2023-06-19T07:56:54;4.60;;;4.30;;
5951;SDS011;3001;42.622;23.194;2023-06-19T07:59:22;3.87;;;3.67;;
5951;SDS011;3001;42.622;23.194;2023-06-19T08:01:49;4.47;;;4.27;;
5951;SDS011;3001;42.622;23.194;2023-06-19T08:04:15;3.83;;;3.63;;
5951;SDS011;3001;42.622;23.194;2023-06-19T08:06:42;4.10;;;3.70;;
5951;SDS011;3001;42.622;23.194;2023-06-19T08:09:09;4.10;;;3.90;;
5951;SDS011;3001;42.622;23.194;2023-06-19T08:11:35;4.20;;;3.83;;
5951;SDS011;3001;42.622;23.194;2023-06-19T08:14:02;3.60;;;3.40;;
5951;SDS011;3001;42.622;23.194;2023-06-19T08:16:30;4.00;;;3.80;;
5951;SDS011;3001;42.622;23.194;2023-06-19T08:18:57;4.07;;;3.87;;
5951;SDS011;3001;42.622;23.194;2023-06-19T08:21:24;3.60;;;3.40;;
5951;SDS011;3001;42.622;23.194;2023-06-19T08:23:50;3.73;;;3.47;;
5951;SDS011;3001;42.622;23.194;2023-06-19T08:26:17;4.30;;;4.10;;
5951;SDS011;3001;42.622;23.194;2023-06-19T08:28:44;4.57;;;3.50;;
5951;SDS011;3001;42.622;23.194;2023-06-19T08:31:10;3.60;;;3.40;;
5951;SDS011;3001;42.622;23.194;2023-06-19T08:33:38;3.67;;;3.47;;
5951;SDS011;3001;42.622;23.194;2023-06-19T08:36:05;3.80;;;3.60;;
5951;SDS011;3001;42.622;23.194;2023-06-19T08:38:32;4.13;;;3.70;;
5951;SDS011;3001;42.622;23.194;2023-06-19T08:40:59;3.80;;;3.70;;
5951;SDS011;3001;42.622;23.194;2023-06-19T08:43:25;4.47;;;3.93;;
5951;SDS011;3001;42.622;23.194;2023-06-19T08:45:54;9.63;;;8.93;;
5951;SDS011;3001;42.622;23.194;2023-06-19T08:48:34;4.30;;;4.10;;
5951;SDS011;3001;42.622;23.194;2023-06-19T08:51:02;5.03;;;4.73;;
5951;SDS011;3001;42.622;23.194;2023-06-19T08:53:32;4.27;;;4.07;;
5951;SDS011;3001;42.622;23.194;2023-06-19T08:56:00;4.33;;;4.00;;
5951;SDS011;3001;42.622;23.194;2023-06-19T08:58:26;3.53;;;3.43;;
5951;SDS011;3001;42.622;23.194;2023-06-19T09:00:53;3.70;;;3.50;;
5951;SDS011;3001;42.622;23.194;2023-06-19T09:03:20;3.50;;;3.20;;
5951;SDS011;3001;42.622;23.194;2023-06-19T09:05:48;3.67;;;3.47;;
5951;SDS011;3001;42.622;23.194;2023-06-19T09:08:17;4.73;;;4.53;;
5951;SDS011;3001;42.622;23.194;2023-06-19T09:10:53;5.10;;;4.90;;
5951;SDS011;3001;42.622;23.194;2023-06-19T09:13:23;3.40;;;3.30;;
5951;SDS011;3001;42.622;23.194;2023-06-19T09:15:56;3.90;;;3.70;;
5951;SDS011;3001;42.622;23.194;2023-06-19T09:18:25;3.63;;;3.43;;
5951;SDS011;3001;42.622;23.194;2023-06-19T09:20:52;3.60;;;3.50;;
5951;SDS011;3001;42.622;23.194;2023-06-19T09:23:21;3.77;;;3.57;;
5951;SDS011;3001;42.622;23.194;2023-06-19T09:25:48;3.23;;;3.13;;
5951;SDS011;3001;42.622;23.194;2023-06-19T09:28:17;3.63;;;3.43;;
5951;SDS011;3001;42.622;23.194;2023-06-19T09:30:54;3.33;;;3.10;;
5951;SDS011;3001;42.622;23.194;2023-06-19T09:33:23;2.57;;;2.47;;
5951;SDS011;3001;42.622;23.194;2023-06-19T09:35:50;3.40;;;3.30;;
5951;SDS011;3001;42.622;23.194;2023-06-19T09:38:19;4.10;;;3.80;;
5951;SDS011;3001;42.622;23.194;2023-06-19T09:40:49;6.60;;;6.20;;
5951;SDS011;3001;42.622;23.194;2023-06-19T09:43:18;5.60;;;5.30;;
5951;SDS011;3001;42.622;23.194;2023-06-19T09:45:49;8.93;;;8.20;;
5951;SDS011;3001;42.622;23.194;2023-06-19T09:48:18;3.90;;;3.70;;
5951;SDS011;3001;42.622;23.194;2023-06-19T09:50:47;4.00;;;3.60;;
5951;SDS011;3001;42.622;23.194;2023-06-19T09:53:17;3.97;;;3.60;;
5951;SDS011;3001;42.622;23.194;2023-06-19T09:55:46;3.57;;;3.20;;
5951;SDS011;3001;42.622;23.194;2023-06-19T09:58:15;3.43;;;3.20;;
5951;SDS011;3001;42.622;23.194;2023-06-19T10:00:43;3.43;;;3.30;;
5951;SDS011;3001;42.622;23.194;2023-06-19T10:03:11;3.37;;;3.27;;
5951;SDS011;3001;42.622;23.194;2023-06-19T10:05:38;3.57;;;3.37;;
5951;SDS011;3001;42.622;23.194;2023-06-19T10:08:05;3.55;;;3.42;;
5951;SDS011;3001;42.622;23.194;2023-06-19T10:10:33;3.17;;;3.07;;
5951;SDS011;3001;42.622;23.194;2023-06-19T10:13:13;3.00;;;2.85;;
5951;SDS011;3001;42.622;23.194;2023-06-19T10:15:41;3.33;;;2.97;;
5951;SDS011;3001;42.622;23.194;2023-06-19T10:18:13;3.67;;;3.10;;
5951;SDS011;3001;42.622;23.194;2023-06-19T10:20:42;4.43;;;3.03;;
5951;SDS011;3001;42.622;23.194;2023-06-19T10:23:10;2.85;;;2.70;;
5951;SDS011;3001;42.622;23.194;2023-06-19T10:25:39;3.53;;;3.20;;
5951;SDS011;3001;42.622;23.194;2023-06-19T10:28:17;3.45;;;3.22;;
5951;SDS011;3001;42.622;23.194;2023-06-19T10:30:51;4.70;;;3.45;;
5951;SDS011;3001;42.622;23.194;2023-06-19T10:33:18;3.45;;;3.35;;
5951;SDS011;3001;42.622;23.194;2023-06-19T10:35:45;3.55;;;3.25;;
5951;SDS011;3001;42.622;23.194;2023-06-19T10:38:14;3.38;;;3.10;;
5951;SDS011;3001;42.622;23.194;2023-06-19T10:40:41;3.75;;;3.65;;
5951;SDS011;3001;42.622;23.194;2023-06-19T10:43:09;3.38;;;3.28;;
5951;SDS011;3001;42.622;23.194;2023-06-19T10:45:37;3.03;;;2.83;;
5951;SDS011;3001;42.622;23.194;2023-06-19T10:48:04;3.60;;;3.40;;
5951;SDS011;3001;42.622;23.194;2023-06-19T10:50:33;3.13;;;3.03;;
5951;SDS011;3001;42.622;23.194;2023-06-19T10:53:03;3.65;;;3.38;;
5951;SDS011;3001;42.622;23.194;2023-06-19T10:55:30;3.25;;;3.15;;
5951;SDS011;3001;42.622;23.194;2023-06-19T10:57:56;3.75;;;3.55;;
5951;SDS011;3001;42.622;23.194;2023-06-19T11:00:24;3.80;;;3.50;;
5951;SDS011;3001;42.622;23.194;2023-06-19T11:02:54;3.67;;;3.42;;
5951;SDS011;3001;42.622;23.194;2023-06-19T11:05:21;3.20;;;3.10;;
5951;SDS011;3001;42.622;23.194;2023-06-19T11:07:52;3.90;;;3.70;;
5951;SDS011;3001;42.622;23.194;2023-06-19T11:10:20;3.60;;;3.50;;
5951;SDS011;3001;42.622;23.194;2023-06-19T11:12:48;3.85;;;3.65;;
5951;SDS011;3001;42.622;23.194;2023-06-19T11:15:15;3.50;;;3.30;;
5951;SDS011;3001;42.622;23.194;2023-06-19T11:17:42;3.65;;;3.45;;
5951;SDS011;3001;42.622;23.194;2023-06-19T11:20:11;3.13;;;2.92;;
5951;SDS011;3001;42.622;23.194;2023-06-19T11:22:39;3.58;;;3.45;;
5951;SDS011;3001;42.622;23.194;2023-06-19T11:25:08;3.72;;;3.55;;
5951;SDS011;3001;42.622;23.194;2023-06-19T11:27:37;3.35;;;3.25;;
5951;SDS011;3001;42.622;23.194;2023-06-19T11:30:05;3.70;;;3.45;;
5951;SDS011;3001;42.622;23.194;2023-06-19T11:32:35;3.83;;;3.63;;
5951;SDS011;3001;42.622;23.194;2023-06-19T11:35:07;3.92;;;3.72;;
5951;SDS011;3001;42.622;23.194;2023-06-19T11:37:39;3.58;;;3.38;;
5951;SDS011;3001;42.622;23.194;2023-06-19T11:40:07;3.58;;;3.47;;
5951;SDS011;3001;42.622;23.194;2023-06-19T11:42:51;4.22;;;3.83;;
5951;SDS011;3001;42.622;23.194;2023-06-19T11:45:18;4.25;;;3.90;;
5951;SDS011;3001;42.622;23.194;2023-06-19T11:47:45;3.90;;;3.63;;
5951;SDS011;3001;42.622;23.194;2023-06-19T11:50:13;3.95;;;3.65;;
5951;SDS011;3001;42.622;23.194;2023-06-19T11:52:43;3.92;;;3.70;;
5951;SDS011;3001;42.622;23.194;2023-06-19T11:55:10;4.00;;;3.80;;
5951;SDS011;3001;42.622;23.194;2023-06-19T11:57:38;4.40;;;4.20;;
5951;SDS011;3001;42.622;23.194;2023-06-19T12:00:11;4.28;;;4.00;;
5951;SDS011;3001;42.622;23.194;2023-06-19T12:02:41;4.28;;;3.88;;
5951;SDS011;3001;42.622;23.194;2023-06-19T12:05:08;3.92;;;3.72;;
5951;SDS011;3001;42.622;23.194;2023-06-19T12:07:35;4.13;;;3.90;;
5951;SDS011;3001;42.622;23.194;2023-06-19T12:10:04;3.55;;;3.45;;
5951;SDS011;3001;42.622;23.194;2023-06-19T12:12:36;4.30;;;4.03;;
5951;SDS011;3001;42.622;23.194;2023-06-19T12:15:04;6.20;;;4.30;;
5951;SDS011;3001;42.622;23.194;2023-06-19T12:17:31;3.63;;;3.42;;
5951;SDS011;3001;42.622;23.194;2023-06-19T12:19:59;4.00;;;3.80;;
5951;SDS011;3001;42.622;23.194;2023-06-19T12:22:26;4.30;;;4.00;;
5951;SDS011;3001;42.622;23.194;2023-06-19T12:24:53;4.85;;;4.45;;
5951;SDS011;3001;42.622;23.194;2023-06-19T12:27:21;3.85;;;3.65;;
5951;SDS011;3001;42.622;23.194;2023-06-19T12:29:48;3.67;;;3.58;;
5951;SDS011;3001;42.622;23.194;2023-06-19T12:32:14;3.72;;;3.63;;
5951;SDS011;3001;42.622;23.194;2023-06-19T12:34:41;3.72;;;3.60;;
5951;SDS011;3001;42.622;23.194;2023-06-19T12:37:11;4.32;;;4.13;;
5951;SDS011;3001;42.622;23.194;2023-06-19T12:39:38;4.40;;;4.10;;
5951;SDS011;3001;42.622;23.194;2023-06-19T12:42:06;4.43;;;4.22;;
5951;SDS011;3001;42.622;23.194;2023-06-19T12:44:34;4.07;;;3.88;;
5951;SDS011;3001;42.622;23.194;2023-06-19T12:47:01;4.20;;;3.90;;
5951;SDS011;3001;42.622;23.194;2023-06-19T12:49:29;4.15;;;3.95;;
5951;SDS011;3001;42.622;23.194;2023-06-19T12:51:56;4.15;;;3.85;;
5951;SDS011;3001;42.622;23.194;2023-06-19T12:54:23;4.00;;;3.72;;
5951;SDS011;3001;42.622;23.194;2023-06-19T12:56:49;4.80;;;4.53;;
5951;SDS011;3001;42.622;23.194;2023-06-19T12:59:16;4.15;;;3.95;;
5951;SDS011;3001;42.622;23.194;2023-06-19T13:01:44;4.10;;;3.80;;
5951;SDS011;3001;42.622;23.194;2023-06-19T13:04:11;4.30;;;3.90;;
5951;SDS011;3001;42.622;23.194;2023-06-19T13:06:39;4.10;;;3.90;;
5951;SDS011;3001;42.622;23.194;2023-06-19T13:09:06;4.95;;;4.65;;
5951;SDS011;3001;42.622;23.194;2023-06-19T13:11:32;5.05;;;4.65;;
5951;SDS011;3001;42.622;23.194;2023-06-19T13:13:59;7.05;;;4.70;;
5951;SDS011;3001;42.622;23.194;2023-06-19T13:16:26;3.90;;;3.70;;
5951;SDS011;3001;42.622;23.194;2023-06-19T13:18:54;4.45;;;4.25;;
5951;SDS011;3001;42.622;23.194;2023-06-19T13:21:20;5.25;;;5.05;;
5951;SDS011;3001;42.622;23.194;2023-06-19T13:23:47;4.70;;;4.40;;
5951;SDS011;3001;42.622;23.194;2023-06-19T13:26:15;4.13;;;3.92;;
5951;SDS011;3001;42.622;23.194;2023-06-19T13:28:41;3.92;;;3.63;;
5951;SDS011;3001;42.622;23.194;2023-06-19T13:31:08;6.47;;;3.80;;
5951;SDS011;3001;42.622;23.194;2023-06-19T13:33:35;4.15;;;3.92;;
5951;SDS011;3001;42.622;23.194;2023-06-19T13:36:03;4.53;;;4.32;;
5951;SDS011;3001;42.622;23.194;2023-06-19T13:38:30;3.85;;;3.65;;
5951;SDS011;3001;42.622;23.194;2023-06-19T13:40:57;3.95;;;3.83;;
5951;SDS011;3001;42.622;23.194;2023-06-19T13:43:23;3.80;;;3.60;;
5951;SDS011;3001;42.622;23.194;2023-06-19T13:45:50;3.20;;;3.05;;
5951;SDS011;3001;42.622;23.194;2023-06-19T13:48:16;3.47;;;3.28;;
5951;SDS011;3001;42.622;23.194;2023-06-19T13:50:43;3.35;;;3.13;;
5951;SDS011;3001;42.622;23.194;2023-06-19T13:53:11;3.45;;;3.20;;
5951;SDS011;3001;42.622;23.194;2023-06-19T13:55:38;3.45;;;3.25;;
5951;SDS011;3001;42.622;23.194;2023-06-19T13:58:05;3.40;;;3.30;;
5951;SDS011;3001;42.622;23.194;2023-06-19T14:00:31;3.03;;;2.92;;
5951;SDS011;3001;42.622;23.194;2023-06-19T14:03:00;3.97;;;3.78;;
5951;SDS011;3001;42.622;23.194;2023-06-19T14:05:28;3.63;;;3.53;;
5951;SDS011;3001;42.622;23.194;2023-06-19T14:07:55;4.40;;;4.00;;
5951;SDS011;3001;42.622;23.194;2023-06-19T14:10:23;6.32;;;3.63;;
5951;SDS011;3001;42.622;23.194;2023-06-19T14:12:50;3.70;;;3.50;;
5951;SDS011;3001;42.622;23.194;2023-06-19T14:15:16;3.78;;;3.55;;
5951;SDS011;3001;42.622;23.194;2023-06-19T14:17:43;3.58;;;3.42;;
5951;SDS011;3001;42.622;23.194;2023-06-19T14:20:10;3.35;;;3.05;;
5951;SDS011;3001;42.622;23.194;2023-06-19T14:22:37;3.47;;;3.22;;
5951;SDS011;3001;42.622;23.194;2023-06-19T14:25:04;3.58;;;3.20;;
5951;SDS011;3001;42.622;23.194;2023-06-19T14:27:33;3.45;;;3.28;;
5951;SDS011;3001;42.622;23.194;2023-06-19T14:29:59;3.85;;;3.70;;
5951;SDS011;3001;42.622;23.194;2023-06-19T14:32:26;3.90;;;3.65;;
5951;SDS011;3001;42.622;23.194;2023-06-19T14:34:53;3.65;;;3.45;;
5951;SDS011;3001;42.622;23.194;2023-06-19T14:37:19;3.33;;;3.22;;
5951;SDS011;3001;42.622;23.194;2023-06-19T14:39:46;3.65;;;3.45;;
5951;SDS011;3001;42.622;23.194;2023-06-19T14:42:13;3.83;;;3.40;;
5951;SDS011;3001;42.622;23.194;2023-06-19T14:44:41;3.83;;;3.70;;
5951;SDS011;3001;42.622;23.194;2023-06-19T14:47:08;3.40;;;3.30;;
5951;SDS011;3001;42.622;23.194;2023-06-19T14:49:34;4.57;;;4.38;;
5951;SDS011;3001;42.622;23.194;2023-06-19T14:52:02;4.15;;;3.95;;
5951;SDS011;3001;42.622;23.194;2023-06-19T14:54:29;3.78;;;3.53;;
5951;SDS011;3001;42.622;23.194;2023-06-19T14:56:56;3.88;;;3.72;;
5951;SDS011;3001;42.622;23.194;2023-06-19T14:59:23;3.58;;;3.35;;
5951;SDS011;3001;42.622;23.194;2023-06-19T15:01:51;4.78;;;4.53;;